Time;durP1;ratioP1;P1;durP2;ratioP2;P2;SDS_P1;SDS_P2;PMS_P1;PMS_P2;Temp;Humidity;BMP_temperature;BMP_pressure;BME280_temperature;BME280_humidity;BME280_pressure;Samples;Min_cycle;Max_cycle;Signal;HPM_P1;HPM_P2
2021/04/15 00:01:39;;;;;;;4.70;3.72;;;9.00;47.60;;;;;;5029873;28;20037;-82
2021/04/15 00:04:07;;;;;;;4.00;3.60;;;8.90;47.50;;;;;;5014603;28;20070;-81
2021/04/15 00:06:33;;;;;;;4.47;3.80;;;8.90;47.60;;;;;;5013822;28;20033;-80
2021/04/15 00:09:01;;;;;;;4.88;3.67;;;8.80;47.50;;;;;;5024380;28;20647;-81
2021/04/15 00:11:30;;;;;;;7.03;3.80;;;8.80;47.60;;;;;;5030732;28;20261;-81
2021/04/15 00:13:58;;;;;;;3.40;3.10;;;8.80;47.60;;;;;;5029803;28;20029;-80
2021/04/15 00:16:26;;;;;;;6.03;3.75;;;8.80;47.70;;;;;;5013776;28;20415;-79
2021/04/15 00:18:52;;;;;;;4.28;3.55;;;8.70;47.60;;;;;;5013307;28;20108;-80
2021/04/15 00:21:21;;;;;;;3.47;3.00;;;8.60;47.40;;;;;;5029391;28;20124;-81
2021/04/15 00:23:47;;;;;;;3.88;3.58;;;8.60;47.50;;;;;;4996432;28;20056;-81
2021/04/15 00:26:15;;;;;;;4.10;3.70;;;8.60;47.50;;;;;;5013142;28;20033;-81
2021/04/15 00:28:41;;;;;;;4.00;3.60;;;8.50;47.40;;;;;;4997808;28;20477;-82
2021/04/15 00:31:08;;;;;;;5.05;3.50;;;8.50;47.40;;;;;;5014629;28;20044;-83
2021/04/15 00:33:34;;;;;;;4.68;3.10;;;8.40;47.30;;;;;;4997891;28;20025;-83
2021/04/15 00:36:01;;;;;;;4.10;3.28;;;8.40;47.30;;;;;;5014650;28;20094;-84
2021/04/15 00:38:28;;;;;;;3.83;3.15;;;8.30;47.20;;;;;;5014161;28;20021;-83
2021/04/15 00:40:55;;;;;;;3.78;3.28;;;8.30;47.30;;;;;;4998068;28;20477;-83
2021/04/15 00:43:26;;;;;;;3.42;3.10;;;8.20;47.20;;;;;;5030068;28;20033;-84
2021/04/15 00:45:58;;;;;;;4.40;3.42;;;8.20;47.20;;;;;;5013459;28;20071;-83
2021/04/15 00:48:42;;;;;;;3.90;3.50;;;8.20;47.30;;;;;;4994541;28;20042;-84
2021/04/15 00:51:15;;;;;;;3.22;2.83;;;8.10;47.20;;;;;;5006613;28;20430;-83
2021/04/15 00:53:47;;;;;;;3.63;3.30;;;8.10;47.20;;;;;;5012295;28;20026;-83
2021/04/15 00:56:13;;;;;;;4.40;3.60;;;8.00;47.00;;;;;;5031145;28;20061;-83
2021/04/15 00:58:40;;;;;;;3.53;3.22;;;8.00;47.10;;;;;;5027304;28;20121;-83
2021/04/15 01:01:09;;;;;;;4.38;3.00;;;8.00;47.20;;;;;;5027302;28;20026;-83
2021/04/15 01:03:37;;;;;;;4.13;2.90;;;8.00;47.30;;;;;;5030425;28;20041;-83
2021/04/15 01:06:08;;;;;;;3.08;2.78;;;7.90;47.20;;;;;;5012915;28;20034;-84
2021/04/15 01:08:34;;;;;;;4.63;2.83;;;7.80;47.00;;;;;;5029913;28;20049;-84
2021/04/15 01:11:12;;;;;;;5.95;2.92;;;7.80;47.10;;;;;;5011865;28;20057;-83
2021/04/15 01:13:51;;;;;;;3.55;3.20;;;7.80;47.20;;;;;;5012076;28;20546;-84
2021/04/15 01:16:25;;;;;;;4.65;2.80;;;7.80;47.20;;;;;;5030854;28;20094;-83
2021/04/15 01:19:20;;;;;;;3.65;2.95;;;7.70;47.00;;;;;;5012826;28;20025;-82
2021/04/15 01:22:14;;;;;;;4.45;2.90;;;7.70;47.10;;;;;;5029992;28;20447;-84
2021/04/15 01:24:47;;;;;;;5.10;3.35;;;7.60;46.90;;;;;;5012112;28;20029;-83
2021/04/15 01:27:36;;;;;;;4.38;2.60;;;7.60;47.00;;;;;;5011868;28;20029;-83
2021/04/15 01:30:20;;;;;;;4.05;3.00;;;7.50;46.90;;;;;;5012025;28;20037;-82
2021/04/15 01:32:58;;;;;;;3.38;2.90;;;7.50;46.90;;;;;;5009054;28;20038;-82
2021/04/15 01:35:40;;;;;;;2.47;2.28;;;7.50;47.00;;;;;;4996345;28;20543;-82
2021/04/15 01:38:16;;;;;;;3.95;2.75;;;7.40;46.90;;;;;;5012745;28;20064;-81
2021/04/15 01:41:03;;;;;;;4.03;2.83;;;7.30;46.70;;;;;;4992916;28;20121;-82
2021/04/15 01:43:45;;;;;;;2.97;2.67;;;7.30;46.80;;;;;;5028984;28;20469;-82
2021/04/15 01:46:12;;;;;;;3.42;2.60;;;7.30;46.90;;;;;;5027966;28;20176;-83
2021/04/15 01:48:52;;;;;;;3.22;2.67;;;7.30;46.90;;;;;;5009189;28;20424;-82
2021/04/15 01:51:20;;;;;;;3.58;2.58;;;7.20;46.80;;;;;;4999612;28;20397;-82
2021/04/15 01:53:51;;;;;;;3.08;2.78;;;7.20;46.80;;;;;;5036398;28;20091;-81
2021/04/15 01:56:50;;;;;;;2.63;2.42;;;7.10;46.70;;;;;;5046794;28;20064;-81
2021/04/15 01:59:25;;;;;;;2.20;2.00;;;7.10;46.80;;;;;;4998496;28;20044;-79
2021/04/15 02:01:54;;;;;;;3.30;2.90;;;7.00;46.70;;;;;;5015568;28;20041;-81
2021/04/15 02:04:32;;;;;;;3.25;2.53;;;7.00;46.70;;;;;;4998850;28;20022;-83
2021/04/15 02:07:06;;;;;;;3.03;2.30;;;7.00;46.80;;;;;;5011892;28;20133;-81
2021/04/15 02:09:34;;;;;;;3.83;2.25;;;6.90;46.60;;;;;;5011612;28;20511;-83
2021/04/15 02:12:07;;;;;;;3.22;2.70;;;6.90;46.70;;;;;;5011542;28;20339;-83
2021/04/15 02:14:36;;;;;;;3.42;2.53;;;6.90;46.80;;;;;;5013062;28;20033;-82
2021/04/15 02:17:06;;;;;;;2.90;2.70;;;6.90;46.80;;;;;;5011950;28;20038;-83
2021/04/15 02:19:43;;;;;;;2.72;2.47;;;6.90;46.90;;;;;;5012245;28;20029;-85
2021/04/15 02:22:11;;;;;;;2.85;2.47;;;6.80;46.80;;;;;;5011855;28;20030;-83
2021/04/15 02:24:58;;;;;;;3.42;3.13;;;6.80;46.70;;;;;;5012183;28;20054;-85
2021/04/15 02:27:48;;;;;;;3.03;2.72;;;6.70;46.60;;;;;;5012603;28;20493;-82
2021/04/15 02:30:26;;;;;;;3.22;2.92;;;6.70;46.90;;;;;;4995106;28;20065;-83
2021/04/15 02:33:07;;;;;;;2.72;2.50;;;6.70;46.70;;;;;;5011590;28;20038;-83
2021/04/15 02:35:36;;;;;;;3.25;2.53;;;6.60;47.10;;;;;;5012367;28;20124;-83
2021/04/15 02:38:03;;;;;;;3.83;2.70;;;6.60;46.60;;;;;;5011348;28;20025;-81
2021/04/15 02:40:46;;;;;;;2.53;2.33;;;6.50;46.40;;;;;;5013095;28;20026;-83
2021/04/15 02:43:20;;;;;;;2.72;2.40;;;6.50;46.60;;;;;;5019128;28;20477;-82
2021/04/15 02:45:51;;;;;;;2.92;2.72;;;6.50;46.60;;;;;;5015106;28;20042;-83
2021/04/15 02:48:27;;;;;;;3.45;2.90;;;6.50;46.60;;;;;;5014189;28;20385;-84
2021/04/15 02:51:07;;;;;;;3.63;2.45;;;6.40;46.50;;;;;;5030297;28;20037;-82
2021/04/15 02:54:14;;;;;;;3.40;2.50;;;6.40;46.50;;;;;;5014328;28;20036;-82
2021/04/15 02:56:54;;;;;;;6.93;2.55;;;6.40;46.60;;;;;;4997547;28;20171;-83
2021/04/15 02:59:41;;;;;;;3.03;2.38;;;6.30;46.40;;;;;;5032016;28;20384;-81
2021/04/15 03:02:16;;;;;;;2.63;2.20;;;6.40;46.70;;;;;;5014738;28;20032;-83
2021/04/15 03:04:56;;;;;;;3.15;2.60;;;6.30;46.50;;;;;;5031166;28;20029;-84
2021/04/15 03:07:25;;;;;;;3.88;2.53;;;6.20;46.30;;;;;;5015016;28;20119;-84
2021/04/15 03:09:51;;;;;;;2.95;2.53;;;6.20;46.30;;;;;;5029765;28;20087;-82
2021/04/15 03:12:28;;;;;;;3.75;2.90;;;6.20;46.40;;;;;;5031108;28;20049;-81
2021/04/15 03:15:25;;;;;;;2.58;2.30;;;6.20;46.50;;;;;;5031603;28;20029;-81
2021/04/15 03:17:57;;;;;;;3.75;2.75;;;6.20;46.60;;;;;;5001560;28;20030;-82
2021/04/15 03:20:29;;;;;;;2.47;2.28;;;6.10;46.40;;;;;;5014221;28;20033;-82
2021/04/15 03:23:10;;;;;;;3.13;2.10;;;6.10;46.40;;;;;;5030365;28;20072;-81
2021/04/15 03:25:36;;;;;;;2.60;2.40;;;6.10;47.10;;;;;;5014003;28;20025;-81
2021/04/15 03:28:17;;;;;;;3.17;2.33;;;6.00;46.30;;;;;;5014499;28;20033;-83
2021/04/15 03:30:55;;;;;;;4.38;2.10;;;6.00;46.40;;;;;;5031701;28;20512;-82
2021/04/15 03:33:41;;;;;;;2.80;2.50;;;6.00;46.40;;;;;;5014083;28;20041;-83
2021/04/15 03:36:28;;;;;;;3.90;2.33;;;5.90;46.20;;;;;;5031432;28;20114;-83
2021/04/15 03:39:02;;;;;;;3.42;2.97;;;5.90;46.30;;;;;;5031619;28;20083;-84
2021/04/15 03:41:41;;;;;;;3.83;2.47;;;5.80;46.10;;;;;;5031073;28;20091;-82
2021/04/15 03:44:20;;;;;;;2.75;2.30;;;5.80;46.20;;;;;;5012660;28;20025;-84
2021/04/15 03:47:28;;;;;;;2.50;2.30;;;5.80;46.20;;;;;;5030800;28;20103;-82
2021/04/15 03:50:00;;;;;;;3.42;2.22;;;5.80;46.30;;;;;;5031144;28;20038;-82
2021/04/15 03:52:40;;;;;;;3.17;2.38;;;5.70;46.10;;;;;;5031063;28;20431;-84
2021/04/15 03:55:20;;;;;;;3.38;2.72;;;5.70;46.10;;;;;;5029943;28;20026;-83
2021/04/15 03:57:51;;;;;;;2.33;2.10;;;5.60;46.10;;;;;;5030041;28;20124;-83
2021/04/15 04:00:24;;;;;;;2.75;2.55;;;5.60;46.10;;;;;;5030858;28;20034;-82
2021/04/15 04:02:59;;;;;;;3.15;2.65;;;5.60;46.10;;;;;;5030192;28;20021;-83
2021/04/15 04:06:00;;;;;;;4.85;2.90;;;5.50;46.00;;;;;;5014059;28;20048;-82
2021/04/15 04:08:44;;;;;;;2.58;2.25;;;5.50;46.00;;;;;;5017408;28;20038;-82
2021/04/15 04:11:12;;;;;;;;;;;5.50;46.10;;;;;;5019217;28;20523;-82
2021/04/15 04:13:45;;;;;;;2.30;2.10;;;5.40;45.80;;;;;;4977718;28;19910;-82
2021/04/15 04:16:17;;;;;;;2.45;2.25;;;5.40;45.70;;;;;;4993771;28;20034;-82
2021/04/15 04:19:00;;;;;;;2.70;2.30;;;5.40;45.80;;;;;;4993771;28;20133;-83
2021/04/15 04:21:49;;;;;;;2.97;2.37;;;5.40;45.90;;;;;;4977583;28;20503;-83
2021/04/15 04:24:21;;;;;;;3.40;2.03;;;5.40;45.90;;;;;;5013743;28;20581;-83
2021/04/15 04:27:12;;;;;;;4.97;2.88;;;5.30;45.70;;;;;;5014721;28;20041;-81
2021/04/15 04:29:56;;;;;;;3.60;2.03;;;5.30;45.80;;;;;;5013101;28;20481;-81
2021/04/15 04:32:25;;;;;;;2.70;2.50;;;5.30;45.90;;;;;;4980877;28;20026;-82
2021/04/15 04:35:01;;;;;;;2.88;2.58;;;5.20;45.70;;;;;;5014464;28;20095;-80
2021/04/15 04:37:48;;;;;;;2.70;2.50;;;5.20;45.80;;;;;;5014050;28;20042;-84
2021/04/15 04:40:26;;;;;;;2.42;2.22;;;5.20;45.80;;;;;;5012850;28;20474;-82
2021/04/15 04:43:00;;;;;;;1.98;1.75;;;5.20;45.90;;;;;;4988376;28;20118;-82
2021/04/15 04:45:27;;;;;;;2.33;2.13;;;5.10;45.70;;;;;;5010656;28;20037;-84
2021/04/15 04:48:05;;;;;;;3.10;2.45;;;5.10;45.70;;;;;;4988166;28;20120;-82
2021/04/15 04:50:42;;;;;;;2.97;2.40;;;5.00;45.60;;;;;;4974240;28;20177;-81
2021/04/15 04:53:14;;;;;;;7.35;2.10;;;5.10;45.90;;;;;;4979060;28;20093;-82
2021/04/15 04:56:08;;;;;;;3.28;1.80;;;5.00;45.70;;;;;;4996198;28;20192;-81
2021/04/15 04:58:35;;;;;;;3.85;2.67;;;5.00;45.80;;;;;;4986343;28;20116;-81
2021/04/15 05:01:03;;;;;;;2.05;1.85;;;5.00;45.70;;;;;;5004005;28;20540;-79
2021/04/15 05:03:31;;;;;;;1.92;1.83;;;5.00;45.70;;;;;;4990717;28;20048;-81
2021/04/15 05:06:09;;;;;;;3.35;2.40;;;4.90;45.60;;;;;;4999240;28;20109;-79
2021/04/15 05:09:05;;;;;;;7.05;2.00;;;4.90;45.70;;;;;;4991619;28;20060;-81
2021/04/15 05:11:39;;;;;;;3.95;2.28;;;4.80;45.50;;;;;;5014180;28;20060;-81
2021/04/15 05:14:07;;;;;;;3.58;2.20;;;4.80;45.60;;;;;;4991374;28;20038;-82
2021/04/15 05:17:02;;;;;;;2.40;2.15;;;4.80;45.60;;;;;;4994714;28;20041;-83
2021/04/15 05:19:30;;;;;;;2.50;2.10;;;4.80;45.70;;;;;;5027447;28;20037;-82
2021/04/15 05:21:58;;;;;;;2.30;2.10;;;4.80;45.70;;;;;;4999624;28;20196;-83
2021/04/15 05:24:40;;;;;;;2.25;2.05;;;4.70;45.60;;;;;;5022081;28;20029;-83
2021/04/15 05:27:08;;;;;;;2.50;2.05;;;4.80;45.80;;;;;;4992952;28;20038;-83
2021/04/15 05:29:39;;;;;;;2.97;2.67;;;4.70;45.60;;;;;;5024799;28;20350;-84
2021/04/15 05:32:10;;;;;;;1.92;1.73;;;4.70;45.60;;;;;;5010979;28;20492;-82
2021/04/15 05:34:41;;;;;;;3.15;2.47;;;4.70;45.70;;;;;;5021049;28;20117;-81
2021/04/15 05:37:13;;;;;;;2.72;2.10;;;4.70;45.70;;;;;;5024652;28;20048;-82
2021/04/15 05:39:39;;;;;;;4.75;2.28;;;4.70;45.90;;;;;;5027719;28;20400;-80
2021/04/15 05:42:13;;;;;;;2.03;1.90;;;4.70;46.30;;;;;;5010298;28;20366;-80
2021/04/15 05:44:45;;;;;;;2.22;2.03;;;4.80;46.60;;;;;;5028110;28;20043;-82
2021/04/15 05:47:15;;;;;;;5.00;2.17;;;4.80;46.50;;;;;;5027937;28;20125;-79
2021/04/15 05:49:47;;;;;;;2.00;1.80;;;4.90;46.70;;;;;;4994270;28;20034;-78
2021/04/15 05:52:32;;;;;;;3.53;2.03;;;4.90;46.70;;;;;;5010443;28;20076;-82
2021/04/15 05:55:08;;;;;;;4.10;2.53;;;4.90;46.90;;;;;;5010242;28;20036;-80
2021/04/15 05:57:38;;;;;;;2.40;2.20;;;4.90;46.80;;;;;;4988951;28;20037;-80
2021/04/15 06:00:43;;;;;;;4.00;2.40;;;5.00;47.00;;;;;;5019514;28;20134;-81
2021/04/15 06:03:21;;;;;;;4.40;2.45;;;5.00;47.10;;;;;;4969231;28;20576;-81
2021/04/15 06:06:06;;;;;;;2.70;2.40;;;5.10;47.20;;;;;;4954105;28;20030;-79
2021/04/15 06:08:39;;;;;;;2.15;1.85;;;5.10;47.30;;;;;;5015108;28;20120;-80
2021/04/15 06:11:21;;;;;;;3.60;2.13;;;5.20;47.40;;;;;;5022636;28;20061;-81
2021/04/15 06:13:56;;;;;;;2.40;2.20;;;5.20;47.40;;;;;;5008439;28;20450;-79
2021/04/15 06:16:29;;;;;;;3.20;2.72;;;5.30;47.70;;;;;;5021442;28;20418;-82
2021/04/15 06:19:09;;;;;;;3.53;2.20;;;5.40;48.00;;;;;;5005265;28;20080;-81
2021/04/15 06:21:42;;;;;;;3.15;2.38;;;5.50;48.20;;;;;;5007183;28;20037;-79
2021/04/15 06:24:12;;;;;;;2.50;2.30;;;5.70;48.50;;;;;;5021666;28;20168;-81
2021/04/15 06:26:53;;;;;;;2.97;2.10;;;5.80;48.60;;;;;;5010055;28;20026;-80
2021/04/15 06:29:34;;;;;;;3.10;2.30;;;6.00;49.00;;;;;;5025405;28;20559;-81
2021/04/15 06:32:04;;;;;;;4.53;2.42;;;6.10;49.10;;;;;;5012119;28;20041;-81
2021/04/15 06:34:32;;;;;;;3.92;2.30;;;6.30;49.80;;;;;;5027812;28;20067;-83
2021/04/15 06:37:07;;;;;;;2.75;2.55;;;6.40;49.30;;;;;;5012164;28;20291;-81
2021/04/15 06:39:40;;;;;;;4.78;2.28;;;6.60;49.80;;;;;;5013330;28;20126;-82
2021/04/15 06:42:42;;;;;;;2.60;2.40;;;6.80;49.90;;;;;;5030849;28;20114;-81
2021/04/15 06:45:27;;;;;;;6.88;2.72;;;7.00;50.20;;;;;;5014739;28;20036;-81
2021/04/15 06:48:24;;;;;;;6.03;2.40;;;7.20;50.40;;;;;;5028595;28;20041;-81
2021/04/15 06:51:08;;;;;;;4.05;2.60;;;7.40;50.60;;;;;;5026277;28;20545;-82
2021/04/15 06:53:58;;;;;;;3.33;2.55;;;7.70;50.90;;;;;;5027576;28;20036;-83
2021/04/15 06:56:50;;;;;;;2.85;2.08;;;7.80;51.00;;;;;;5009447;28;20040;-82
2021/04/15 06:59:42;;;;;;;2.47;2.10;;;8.10;51.40;;;;;;5027184;28;20034;-84
2021/04/15 07:02:22;;;;;;;4.18;2.78;;;8.30;51.50;;;;;;5009846;28;20037;-83
2021/04/15 07:04:53;;;;;;;2.40;2.20;;;8.50;51.50;;;;;;5026159;28;20033;-83
2021/04/15 07:07:41;;;;;;;3.17;2.30;;;8.80;52.00;;;;;;5027294;28;20033;-82
2021/04/15 07:10:41;;;;;;;3.83;2.58;;;9.00;52.40;;;;;;5022350;28;20041;-84
2021/04/15 07:13:07;;;;;;;3.75;2.80;;;9.20;52.40;;;;;;5017247;28;20121;-83
2021/04/15 07:16:04;;;;;;;3.55;2.22;;;9.50;52.60;;;;;;5008669;28;20041;-82
2021/04/15 07:19:00;;;;;;;3.95;2.83;;;9.70;52.70;;;;;;5009355;28;20060;-82
2021/04/15 07:21:35;;;;;;;2.88;2.15;;;10.00;52.80;;;;;;5026825;28;20034;-82
2021/04/15 07:24:13;;;;;;;3.28;2.58;;;10.20;52.80;;;;;;5026722;28;20037;-82
2021/04/15 07:26:52;;;;;;;2.40;2.20;;;10.40;52.70;;;;;;5026118;28;20105;-82
2021/04/15 07:29:43;;;;;;;3.33;2.58;;;10.60;52.70;;;;;;5010085;28;20324;-83
2021/04/15 07:32:18;;;;;;;3.17;2.50;;;10.70;52.40;;;;;;5025197;28;20037;-84
2021/04/15 07:35:06;;;;;;;3.08;2.60;;;10.90;52.40;;;;;;5027146;28;20053;-85
2021/04/15 07:37:53;;;;;;;2.63;2.42;;;11.00;52.30;;;;;;5009522;28;20029;-87
2021/04/15 07:40:49;;;;;;;2.65;2.25;;;11.10;52.20;;;;;;5026876;28;20069;-81
2021/04/15 07:43:27;;;;;;;2.97;2.72;;;11.20;52.00;;;;;;5025961;28;20041;-80
2021/04/15 07:46:24;;;;;;;2.67;2.22;;;11.30;52.10;;;;;;5024840;28;20053;-79
2021/04/15 07:48:50;;;;;;;2.53;2.33;;;11.40;51.90;;;;;;5024565;28;20029;-79
2021/04/15 07:51:52;;;;;;;2.20;1.90;;;11.50;51.90;;;;;;5025161;28;20047;-77
2021/04/15 07:54:56;;;;;;;3.10;2.25;;;11.70;51.80;;;;;;5024675;28;20030;-78
2021/04/15 07:57:49;;;;;;;4.50;2.63;;;11.90;51.70;;;;;;5010601;28;20064;-81
2021/04/15 08:00:50;;;;;;;3.90;2.40;;;12.00;51.40;;;;;;5028897;28;20040;-76
2021/04/15 08:03:24;;;;;;;3.10;2.05;;;12.30;51.50;;;;;;5012189;28;20772;-76
2021/04/15 08:06:17;;;;;;;4.35;2.72;;;12.40;51.30;;;;;;5029034;28;20124;-79
2021/04/15 08:09:18;;;;;;;4.82;2.97;;;12.60;51.10;;;;;;4994274;28;20132;-81
2021/04/15 08:12:06;;;;;;;3.53;2.42;;;12.70;50.90;;;;;;5011642;28;20409;-80
2021/04/15 08:14:45;;;;;;;5.20;3.10;;;12.90;50.80;;;;;;5012395;28;20032;-86
2021/04/15 08:17:29;;;;;;;2.78;2.45;;;13.00;50.70;;;;;;5028584;28;20034;-84
2021/04/15 08:20:03;;;;;;;4.15;2.45;;;13.00;50.10;;;;;;5013014;28;20030;-84
2021/04/15 08:22:48;;;;;;;2.72;2.47;;;13.10;50.00;;;;;;5021065;28;20021;-87
2021/04/15 08:25:36;;;;;;;4.35;2.63;;;13.10;49.80;;;;;;4992550;28;20124;-82
2021/04/15 08:28:26;;;;;;;4.93;2.45;;;13.00;49.40;;;;;;5013329;28;20038;-87
2021/04/15 08:30:58;;;;;;;4.40;2.97;;;12.90;49.10;;;;;;5014163;28;20044;-82
2021/04/15 08:33:37;;;;;;;7.13;3.85;;;12.90;49.00;;;;;;5029926;28;20021;-82
2021/04/15 08:36:17;;;;;;;6.30;3.42;;;12.80;48.80;;;;;;5011988;28;20037;-82
2021/04/15 08:39:02;;;;;;;9.55;3.58;;;12.70;48.80;;;;;;5012395;28;20029;-83
2021/04/15 08:41:48;;;;;;;3.72;2.67;;;12.60;48.70;;;;;;5027907;28;20560;-82
2021/04/15 08:44:41;;;;;;;4.97;3.03;;;12.60;48.80;;;;;;5029190;28;20041;-82
2021/04/15 08:47:30;;;;;;;8.32;3.20;;;12.60;48.90;;;;;;5029917;28;20493;-82
2021/04/15 08:50:36;;;;;;;3.88;2.90;;;12.50;48.80;;;;;;5012155;28;20038;-81
2021/04/15 08:53:40;;;;;;;9.98;3.85;;;12.40;48.60;;;;;;5010982;28;20040;-80
2021/04/15 08:56:19;;;;;;;4.25;2.60;;;12.40;48.70;;;;;;5010799;28;20480;-84
2021/04/15 08:59:08;;;;;;;3.10;2.65;;;12.40;48.80;;;;;;5028502;28;20068;-84
2021/04/15 09:01:43;;;;;;;5.18;2.95;;;12.30;48.60;;;;;;5028205;28;20397;-83
2021/04/15 09:04:35;;;;;;;3.60;3.15;;;12.30;48.70;;;;;;5010988;28;20098;-85
2021/04/15 09:07:21;;;;;;;3.97;2.53;;;12.20;48.50;;;;;;5023548;28;20029;-82
2021/04/15 09:10:14;;;;;;;4.70;3.15;;;12.10;48.40;;;;;;5009955;28;20049;-83
2021/04/15 09:13:16;;;;;;;4.78;2.95;;;12.10;48.30;;;;;;5028690;28;20068;-80
2021/04/15 09:16:21;;;;;;;4.57;2.50;;;12.10;48.30;;;;;;5011837;28;20392;-83
2021/04/15 09:19:25;;;;;;;;;;;12.10;48.30;;;;;;5013549;28;20033;-85
2021/04/15 09:21:53;;;;;;;3.08;2.50;;;12.20;48.50;;;;;;4954069;28;20516;-83
2021/04/15 09:24:42;;;;;;;4.22;2.50;;;12.30;48.60;;;;;;4936160;28;20031;-84
2021/04/15 09:27:17;;;;;;;3.78;2.35;;;12.30;48.40;;;;;;4974125;28;20045;-83
2021/04/15 09:29:49;;;;;;;5.63;2.53;;;12.40;48.40;;;;;;5024281;28;20394;-84
2021/04/15 09:32:26;;;;;;;2.38;2.17;;;12.40;48.20;;;;;;5009204;28;20045;-83
2021/04/15 09:35:14;;;;;;;8.10;2.60;;;12.40;48.00;;;;;;5011532;28;20029;-83
2021/04/15 09:37:47;;;;;;;3.85;2.00;;;12.50;48.10;;;;;;5028188;28;20040;-83
2021/04/15 09:40:48;;;;;;;4.00;2.65;;;12.60;48.20;;;;;;5027116;28;20069;-83
2021/04/15 09:43:29;;;;;;;2.30;2.10;;;12.60;48.10;;;;;;5026345;28;20459;-83
2021/04/15 09:46:20;;;;;;;2.88;2.10;;;12.60;48.10;;;;;;5028957;28;20061;-84
2021/04/15 09:49:04;;;;;;;3.03;2.42;;;12.60;48.00;;;;;;5027537;28;20029;-82
2021/04/15 09:51:55;;;;;;;2.22;2.03;;;12.60;47.90;;;;;;5026865;28;20076;-84
2021/04/15 09:54:46;;;;;;;2.92;1.60;;;12.60;47.80;;;;;;5043392;28;20033;-84
2021/04/15 09:57:30;;;;;;;4.40;2.13;;;12.70;47.90;;;;;;5010825;28;20037;-84
2021/04/15 10:00:15;;;;;;;3.72;2.15;;;12.70;47.80;;;;;;5028013;28;20037;-84
2021/04/15 10:02:55;;;;;;;4.07;2.13;;;12.80;47.80;;;;;;5029252;28;20029;-84
2021/04/15 10:05:59;;;;;;;3.28;2.20;;;12.80;47.70;;;;;;5029308;28;20037;-84
2021/04/15 10:08:57;;;;;;;2.80;2.05;;;12.80;47.60;;;;;;5028839;28;20132;-84
2021/04/15 10:11:44;;;;;;;3.63;1.92;;;12.80;47.60;;;;;;5011834;28;20050;-84
2021/04/15 10:14:29;;;;;;;3.15;2.00;;;12.90;47.70;;;;;;5028327;28;20109;-84
2021/04/15 10:17:20;;;;;;;2.08;1.58;;;12.90;47.50;;;;;;5027850;28;20065;-83
2021/04/15 10:20:06;;;;;;;2.95;2.00;;;12.90;47.50;;;;;;5010398;28;20087;-85
2021/04/15 10:23:10;;;;;;;2.90;1.83;;;12.90;47.50;;;;;;5010763;28;20060;-84
2021/04/15 10:25:52;;;;;;;2.00;1.40;;;12.90;47.40;;;;;;5027986;28;20038;-82
2021/04/15 10:28:45;;;;;;;2.33;1.65;;;12.90;47.40;;;;;;5028185;28;20067;-86
2021/04/15 10:31:36;;;;;;;1.70;1.60;;;12.90;47.30;;;;;;5026750;28;20052;-83
2021/04/15 10:34:39;;;;;;;2.60;1.77;;;12.90;47.30;;;;;;5027838;28;20088;-82
2021/04/15 10:37:39;;;;;;;1.60;1.40;;;12.90;47.20;;;;;;5010235;28;20030;-80
2021/04/15 10:40:26;;;;;;;5.57;1.83;;;13.00;47.30;;;;;;5027471;28;20018;-84
2021/04/15 10:43:27;;;;;;;1.88;1.73;;;13.00;47.30;;;;;;5029370;28;20021;-83
2021/04/15 10:46:15;;;;;;;2.15;1.52;;;13.00;47.20;;;;;;5026461;28;20059;-81
2021/04/15 10:48:43;;;;;;;1.60;1.50;;;13.10;47.30;;;;;;5010481;28;20121;-83
2021/04/15 10:51:56;;;;;;;3.25;1.70;;;13.10;47.30;;;;;;5026986;28;20320;-83
2021/04/15 10:54:29;;;;;;;1.48;1.17;;;13.10;47.20;;;;;;5005135;28;20029;-82
2021/04/15 10:57:01;;;;;;;1.77;1.60;;;13.20;47.40;;;;;;5027063;28;20033;-83
2021/04/15 10:59:37;;;;;;;4.07;1.60;;;13.20;47.30;;;;;;4988586;28;20037;-84
2021/04/15 11:02:22;;;;;;;1.92;1.30;;;13.30;47.40;;;;;;5011696;28;20033;-83
2021/04/15 11:04:50;;;;;;;1.55;1.30;;;13.30;47.20;;;;;;4992625;28;20040;-82
2021/04/15 11:07:19;;;;;;;1.50;1.40;;;13.40;47.30;;;;;;5026979;28;20527;-82
2021/04/15 11:09:51;;;;;;;2.80;1.75;;;13.40;47.20;;;;;;5025412;28;20394;-84
2021/04/15 11:12:27;;;;;;;4.00;1.25;;;13.50;47.30;;;;;;5010041;28;20042;-87
2021/04/15 11:15:10;;;;;;;1.88;1.27;;;13.50;47.20;;;;;;5008976;28;20485;-85
2021/04/15 11:17:43;;;;;;;2.00;1.47;;;13.60;47.40;;;;;;5025668;28;20026;-85
2021/04/15 11:20:12;;;;;;;1.60;1.50;;;13.60;47.30;;;;;;5009906;28;20160;-82
2021/04/15 11:22:41;;;;;;;4.05;1.83;;;13.70;47.40;;;;;;5010188;28;20090;-85
2021/04/15 11:25:13;;;;;;;2.05;1.80;;;13.70;47.30;;;;;;5009641;28;20033;-83
2021/04/15 11:27:40;;;;;;;2.55;1.65;;;13.80;47.30;;;;;;5025162;28;20484;-85
2021/04/15 11:30:07;;;;;;;1.92;1.40;;;13.80;47.30;;;;;;5010132;28;20029;-85
2021/04/15 11:32:40;;;;;;;2.20;1.80;;;13.90;47.30;;;;;;5010698;28;20212;-84
2021/04/15 11:35:19;;;;;;;2.10;1.50;;;13.90;47.20;;;;;;5013360;28;20116;-83
2021/04/15 11:37:48;;;;;;;1.60;1.40;;;13.90;47.10;;;;;;5030333;28;20030;-82
2021/04/15 11:40:37;;;;;;;3.03;1.33;;;14.00;47.20;;;;;;5012970;28;20033;-82
2021/04/15 11:43:35;;;;;;;2.83;1.80;;;14.00;47.00;;;;;;5013537;28;20033;-83
2021/04/15 11:46:15;;;;;;;2.15;1.40;;;14.10;47.00;;;;;;5030949;28;20457;-83
2021/04/15 11:48:41;;;;;;;1.67;1.38;;;14.10;46.90;;;;;;4980443;28;20041;-81
2021/04/15 11:51:21;;;;;;;1.50;1.35;;;14.10;46.90;;;;;;5012630;28;20128;-81
2021/04/15 11:53:55;;;;;;;3.08;1.45;;;14.20;46.90;;;;;;5012876;28;20029;-83
2021/04/15 11:56:31;;;;;;;2.55;1.60;;;14.20;46.70;;;;;;5012918;28;20108;-81
2021/04/15 11:59:19;;;;;;;1.83;1.35;;;14.30;46.80;;;;;;5012237;28;20500;-80
2021/04/15 12:01:45;;;;;;;2.28;1.45;;;14.40;46.90;;;;;;5014249;28;20087;-84
2021/04/15 12:04:23;;;;;;;2.53;1.30;;;14.40;46.90;;;;;;4996646;28;20037;-80
2021/04/15 12:06:59;;;;;;;1.88;1.52;;;14.50;46.90;;;;;;4996350;28;20073;-81
2021/04/15 12:09:32;;;;;;;2.72;1.55;;;14.60;47.10;;;;;;5011911;28;20481;-80
2021/04/15 12:12:32;;;;;;;2.63;1.55;;;14.70;47.00;;;;;;4995624;28;20077;-83
2021/04/15 12:15:00;;;;;;;1.73;1.52;;;14.80;47.00;;;;;;4986880;28;20496;-80
2021/04/15 12:17:59;;;;;;;4.22;1.48;;;14.90;47.10;;;;;;5011980;28;20036;-80
2021/04/15 12:20:57;;;;;;;2.60;1.60;;;15.00;47.10;;;;;;4992652;28;20561;-81
2021/04/15 12:23:32;;;;;;;2.75;1.73;;;15.20;47.40;;;;;;5010515;28;20035;-80
2021/04/15 12:26:21;;;;;;;2.17;1.30;;;15.30;47.40;;;;;;5012166;28;20053;-79
2021/04/15 12:29:00;;;;;;;2.55;1.40;;;15.40;47.50;;;;;;5011658;28;20365;-81
2021/04/15 12:31:48;;;;;;;5.22;1.73;;;15.50;47.40;;;;;;5029225;28;20063;-84
2021/04/15 12:34:32;;;;;;;5.85;1.98;;;15.60;46.60;;;;;;5013383;28;20041;-83
2021/04/15 12:37:03;;;;;;;6.35;2.15;;;15.70;47.00;;;;;;5011973;28;20040;-81
2021/04/15 12:39:45;;;;;;;2.80;1.63;;;15.80;47.30;;;;;;5008474;28;20034;-81
2021/04/15 12:42:12;;;;;;;3.67;1.98;;;15.90;47.50;;;;;;5007481;28;20092;-83
2021/04/15 12:44:38;;;;;;;2.70;1.83;;;16.10;47.80;;;;;;4995797;28;20034;-84
2021/04/15 12:47:05;;;;;;;3.38;2.20;;;16.20;47.90;;;;;;5011564;28;20029;-83
2021/04/15 12:49:36;;;;;;;6.97;2.13;;;16.30;47.90;;;;;;5012080;28;20452;-85
2021/04/15 12:52:12;;;;;;;4.82;2.15;;;16.40;48.00;;;;;;5011874;28;20041;-83
2021/04/15 12:54:41;;;;;;;3.17;1.88;;;16.50;48.10;;;;;;5007521;28;20108;-83
2021/04/15 12:57:11;;;;;;;4.32;2.00;;;16.60;48.20;;;;;;5008772;28;20080;-84
2021/04/15 12:59:41;;;;;;;2.70;1.88;;;16.60;48.00;;;;;;5007417;28;20510;-84
2021/04/15 13:02:26;;;;;;;2.22;1.75;;;16.70;48.20;;;;;;4995376;28;20025;-82
2021/04/15 13:05:06;;;;;;;2.97;1.90;;;16.90;48.40;;;;;;5028649;28;20065;-84
2021/04/15 13:07:36;;;;;;;3.15;2.15;;;17.00;48.40;;;;;;5011729;28;20120;-84
2021/04/15 13:10:14;;;;;;;2.17;1.60;;;17.20;48.60;;;;;;5029176;28;20542;-84
2021/04/15 13:12:44;;;;;;;2.70;1.92;;;17.20;48.50;;;;;;5007683;28;20045;-85
2021/04/15 13:15:39;;;;;;;2.55;1.70;;;17.40;48.80;;;;;;5009221;28;20338;-86
2021/04/15 13:18:09;;;;;;;3.55;1.98;;;17.50;48.70;;;;;;4978167;28;20555;-84
2021/04/15 13:20:41;;;;;;;2.42;1.67;;;17.60;48.80;;;;;;5011619;28;20108;-80
2021/04/15 13:23:07;;;;;;;3.40;2.10;;;17.80;49.00;;;;;;5011928;28;20038;-83
2021/04/15 13:25:52;;;;;;;3.30;1.83;;;18.00;49.20;;;;;;5011580;28;20133;-82
2021/04/15 13:28:40;;;;;;;2.42;1.52;;;18.20;49.30;;;;;;5029086;28;20061;-82
2021/04/15 13:31:09;;;;;;;2.20;1.75;;;18.30;49.30;;;;;;5010593;28;20052;-81
2021/04/15 13:33:35;;;;;;;2.35;1.63;;;18.60;49.80;;;;;;4995186;28;20124;-81
2021/04/15 13:36:05;;;;;;;2.03;1.70;;;18.70;49.70;;;;;;5011502;28;20030;-83
2021/04/15 13:38:46;;;;;;;4.30;1.50;;;18.90;49.70;;;;;;5011493;28;20029;-81
2021/04/15 13:41:24;;;;;;;3.00;1.33;;;19.00;49.70;;;;;;5011819;28;20037;-83
2021/04/15 13:44:04;;;;;;;3.55;1.45;;;19.00;49.40;;;;;;5029454;28;20037;-85
2021/04/15 13:46:35;;;;;;;2.30;1.60;;;19.00;49.30;;;;;;5012606;28;20315;-83
2021/04/15 13:49:12;;;;;;;2.00;1.38;;;19.00;49.40;;;;;;4996395;28;20038;-84
2021/04/15 13:51:45;;;;;;;3.78;1.48;;;19.00;49.30;;;;;;5012978;28;20084;-87
2021/04/15 13:54:37;;;;;;;1.98;1.40;;;19.00;49.30;;;;;;5029297;28;20083;-91
2021/04/15 13:57:04;;;;;;;5.18;1.23;;;19.10;49.50;;;;;;5012840;28;20056;-85